Cedar Hill, Texas
Current Conditions -  °F | °C
As of 3:53 PM on Sunday 23 Nov 2014 (Local Time) from KRBD Reporting Station
Clear Clear  
Wind Chill: 78°   Ceiling: Unl
Heat Index: 78°   Visibility: 10mi
Dew Point: 34°   Wind: 15mph
Humidity: 20%   Direction: 270°W
Pressure: 29.42"   Gusts: 30mph
Location:  32.59°N, 96.95°W
Report Text: KRBD 232153Z AUTO 27013G26KT 10SM CLR 26/01 A2942 RMK AO2 PK WND 26029/2109 SLP954 T02560011
Loading
Personal Weather Stations






























Interactive Weather Map New forecast layout! Learn more

10-Day Weather Forecast

Advertisements
Track Severe Weather on mobile